Hovedside
METAR-TAF:

METAR-TAF

Lufthavner :

Ørsta/Volda lufthamn. Hovden

Ørsta-Volda, Norge

breddegrad: 62-11N, lengdegrad: 006-04E, høyde over havet: 7 m

Gjeldene værobservasjon

Denne rapporten ble laget for 17 minutter siden, klokken 10:50 UTC
Vind 2 kt fra Vest
Temperatur 11°C
Luftfuktighet 62%
Trykk 1015 hPa
Sikt 10 km eller mer
Spredte skyer i en høyde av 3000 ft
Brutte skyer i en høyde av 3900 ft

METAR: ENOV 191050Z 27002KT 9999 SCT030 BKN039 11/04 Q1015 RMK WIND RWY 24 30004KT WIND 2090FT 29002KT

Tid: 13:07 (11:07 UTC)

Varsel

Denne rapporten ble laget for 3 timer og 7 minutter siden, klokken 08:00 UTC
Varsel gyldig fra 19. klokken 09 UTC til 19. klokken 18 UTC
Vind 8 kt fra Sørvest
Sikt 10 km eller mer
Få skyer i en høyde av 2000 ft
Brutte skyer i en høyde av 3000 ft

TAF: ENOV 190800Z 1909/1918 22008KT 9999 FEW020 BKN030

Værobservasjoner og værvarsel for over 4000 flyplasser (METAR- og TAF-rapporter).

Tilgjengelige stasjoner er representert av de røde og gule prikkene på kartet.

Hold musepekeren over prikken for å se navnet på stasjonen.

Klikk så for å se værobservasjoner og -varsler.

For å forandre kartet kan du klikke på den grønne knappen med svart kryss for å zoome inn, på den grønne knappen med strek for å zoome ut, eller på de grønne pilene for å se tilstøtende kart.


METAR-TAF: